Time;durP1;ratioP1;P1;durP2;ratioP2;P2;SDS_P1;SDS_P2;PMS_P1;PMS_P2;Temp;Humidity;BMP_temperature;BMP_pressure;BME280_temperature;BME280_humidity;BME280_pressure;Samples;Min_cycle;Max_cycle;Signal;HPM_P1;HPM_P2
2021/12/30 00:00:09;;;;;;;7.90;7.10;;;22.50;71.60;;;;;;6186635;28;88362;-71
2021/12/30 00:03:13;;;;;;;8.43;7.32;;;22.50;71.60;;;;;;6210313;28;89039;-71
2021/12/30 00:06:17;;;;;;;8.60;7.63;;;22.50;71.60;;;;;;6195813;28;89758;-71
2021/12/30 00:09:20;;;;;;;8.60;7.35;;;22.50;71.60;;;;;;6208747;28;90137;-71
2021/12/30 00:12:22;;;;;;;8.40;7.28;;;22.50;71.70;;;;;;6201851;28;89224;-71
2021/12/30 00:15:25;;;;;;;8.77;7.75;;;22.40;72.50;;;;;;6209250;28;88143;-71
2021/12/30 00:18:28;;;;;;;8.45;7.55;;;22.40;71.70;;;;;;6209967;28;89093;-70
2021/12/30 00:21:30;;;;;;;8.73;7.82;;;22.40;71.70;;;;;;6200532;28;89430;-70
2021/12/30 00:24:32;;;;;;;8.93;7.63;;;22.40;71.80;;;;;;6199017;28;89109;-70
2021/12/30 00:27:35;;;;;;;9.07;7.90;;;22.40;71.80;;;;;;6203700;28;89031;-70
2021/12/30 00:30:37;;;;;;;8.95;8.05;;;22.40;71.80;;;;;;6205790;28;87786;-71
2021/12/30 00:33:40;;;;;;;8.95;8.05;;;22.40;71.80;;;;;;6199650;28;88017;-70
2021/12/30 00:36:42;;;;;;;10.52;8.63;;;22.30;71.80;;;;;;6207555;28;89136;-71
2021/12/30 00:39:44;;;;;;;9.35;8.38;;;22.30;71.80;;;;;;6197059;28;88926;-71
2021/12/30 00:42:46;;;;;;;9.10;8.10;;;22.40;72.00;;;;;;6184197;28;89146;-71
2021/12/30 00:45:49;;;;;;;8.77;7.88;;;22.30;71.80;;;;;;6208043;28;89173;-71
2021/12/30 00:48:52;;;;;;;8.88;7.97;;;22.30;71.80;;;;;;6201850;28;89306;-71
2021/12/30 00:51:54;;;;;;;9.02;8.13;;;22.30;71.80;;;;;;6221535;28;88896;-71
2021/12/30 00:54:56;;;;;;;8.93;8.02;;;22.30;71.70;;;;;;6197514;28;89104;-70
2021/12/30 00:57:58;;;;;;;8.50;7.70;;;22.30;71.80;;;;;;6210370;28;87972;-70
2021/12/30 01:01:03;;;;;;;9.25;8.27;;;22.30;71.60;;;;;;6209384;28;88203;-70
2021/12/30 01:04:06;;;;;;;8.95;8.05;;;22.40;71.70;;;;;;6196205;28;89447;-72
2021/12/30 01:07:08;;;;;;;9.77;8.63;;;22.30;71.60;;;;;;6208328;28;89174;-71
2021/12/30 01:10:14;;;;;;;9.15;8.25;;;22.30;71.60;;;;;;6194630;28;89927;-71
2021/12/30 01:13:22;;;;;;;8.85;7.95;;;22.30;71.80;;;;;;6209020;28;89013;-70
2021/12/30 01:16:24;;;;;;;9.18;8.15;;;22.20;71.70;;;;;;6207344;28;89048;-71
2021/12/30 01:22:58;;;;;;;8.90;8.00;;;22.20;71.80;;;;;;6324838;27;80029;-72
2021/12/30 01:26:01;;;;;;;8.80;7.90;;;22.30;71.80;;;;;;6316557;27;82335;-72
2021/12/30 01:29:03;;;;;;;8.82;7.93;;;22.20;71.90;;;;;;6327859;27;82266;-72
2021/12/30 01:32:06;;;;;;;9.02;8.00;;;22.20;71.80;;;;;;6315161;27;82636;-72
2021/12/30 01:35:11;;;;;;;8.85;7.80;;;22.20;71.80;;;;;;6321053;27;82508;-72
2021/12/30 01:38:16;;;;;;;9.30;8.23;;;22.20;71.80;;;;;;6320919;27;82247;-73
2021/12/30 01:41:18;;;;;;;8.60;7.72;;;22.10;71.90;;;;;;6320936;27;82383;-72
2021/12/30 01:44:20;;;;;;;9.00;8.10;;;22.20;72.00;;;;;;6333820;27;82264;-72
2021/12/30 01:47:24;;;;;;;9.30;8.40;;;22.10;71.80;;;;;;6308153;27;82536;-72
2021/12/30 01:50:26;;;;;;;8.27;7.47;;;22.20;71.90;;;;;;6329709;27;82418;-72
2021/12/30 01:53:30;;;;;;;8.85;7.95;;;22.20;71.80;;;;;;6316383;27;82243;-72
2021/12/30 01:56:32;;;;;;;8.73;7.82;;;22.20;71.80;;;;;;6320860;27;82553;-72
2021/12/30 01:59:34;;;;;;;8.88;7.97;;;22.20;71.70;;;;;;6307409;27;82617;-73
2021/12/30 02:02:36;;;;;;;8.18;7.38;;;22.10;71.70;;;;;;6305220;27;82774;-72
2021/12/30 02:05:38;;;;;;;8.30;7.50;;;22.20;71.80;;;;;;6317026;27;82484;-72
2021/12/30 02:08:42;;;;;;;8.63;7.72;;;22.10;71.70;;;;;;6329899;27;81550;-73
2021/12/30 02:11:44;;;;;;;8.90;7.72;;;22.10;71.80;;;;;;6323526;27;82354;-72
2021/12/30 02:14:46;;;;;;;8.30;7.50;;;22.10;71.80;;;;;;6309521;27;82357;-72
2021/12/30 02:17:51;;;;;;;8.00;7.20;;;22.10;72.00;;;;;;6320837;27;82423;-71
2021/12/30 02:20:56;;;;;;;8.05;7.25;;;22.10;71.90;;;;;;6308398;27;81039;-72
2021/12/30 02:23:58;;;;;;;8.20;7.40;;;22.10;72.00;;;;;;6323250;27;82712;-72
2021/12/30 02:27:00;;;;;;;8.48;7.35;;;22.10;71.90;;;;;;6325101;27;82360;-72
2021/12/30 02:30:03;;;;;;;8.00;7.20;;;22.00;71.90;;;;;;6308684;27;82503;-72
2021/12/30 02:33:05;;;;;;;8.80;7.68;;;22.00;72.00;;;;;;6296444;27;82408;-72
2021/12/30 02:36:29;;;;;;;8.02;7.22;;;22.00;72.00;;;;;;6287989;27;81356;-72
2021/12/30 02:39:54;;;;;;;8.43;7.45;;;22.00;72.30;;;;;;6296872;27;81245;-72
2021/12/30 02:42:56;;;;;;;8.18;7.38;;;22.00;72.00;;;;;;6312918;27;81559;-72
2021/12/30 02:46:00;;;;;;;7.82;7.03;;;22.00;72.00;;;;;;6292628;27;82310;-72
2021/12/30 02:49:02;;;;;;;7.80;7.00;;;22.00;72.00;;;;;;6301061;27;82300;-72
2021/12/30 02:52:06;;;;;;;7.90;7.10;;;22.00;72.00;;;;;;6288251;27;82026;-71
2021/12/30 02:55:08;;;;;;;7.80;7.00;;;22.00;71.80;;;;;;6288591;27;82436;-72
2021/12/30 02:58:11;;;;;;;7.93;7.13;;;22.00;71.80;;;;;;6299818;27;82416;-72
2021/12/30 03:01:16;;;;;;;7.93;7.13;;;22.00;71.80;;;;;;6305602;27;81220;-72
2021/12/30 03:04:18;;;;;;;7.95;7.15;;;22.00;71.80;;;;;;6295312;27;82392;-71
2021/12/30 03:07:22;;;;;;;7.22;6.53;;;22.00;71.90;;;;;;6306958;27;82348;-71
2021/12/30 03:10:28;;;;;;;7.35;6.65;;;22.00;72.00;;;;;;6305937;27;82463;-72
2021/12/30 03:13:32;;;;;;;7.10;6.40;;;22.00;71.90;;;;;;6310981;27;80788;-72
2021/12/30 03:16:37;;;;;;;7.65;6.85;;;22.00;72.00;;;;;;6303625;27;81994;-71
2021/12/30 03:19:39;;;;;;;7.60;6.80;;;21.90;72.00;;;;;;6298041;27;81258;-72
2021/12/30 03:22:44;;;;;;;6.82;6.13;;;21.90;72.00;;;;;;6301748;27;82547;-72
2021/12/30 03:25:46;;;;;;;7.05;6.35;;;21.90;72.00;;;;;;6298251;27;82746;-72
2021/12/30 03:28:49;;;;;;;7.32;6.63;;;21.90;72.00;;;;;;6314411;27;81231;-71
2021/12/30 03:31:51;;;;;;;7.35;6.63;;;21.90;72.20;;;;;;6301782;27;82562;-72
2021/12/30 03:34:53;;;;;;;6.93;5.97;;;21.90;72.10;;;;;;6290872;27;81227;-72
2021/12/30 03:37:56;;;;;;;7.18;6.47;;;21.90;72.30;;;;;;6311826;27;82294;-71
2021/12/30 03:40:59;;;;;;;7.28;6.57;;;21.90;72.20;;;;;;6301027;27;81275;-72
2021/12/30 03:44:03;;;;;;;7.18;6.47;;;21.90;72.20;;;;;;6300186;27;81162;-71
2021/12/30 03:47:06;;;;;;;7.18;6.47;;;21.90;72.20;;;;;;6304732;27;82268;-72
2021/12/30 03:50:13;;;;;;;6.70;6.00;;;21.90;72.20;;;;;;6305062;27;81109;-72
2021/12/30 03:53:17;;;;;;;6.70;6.00;;;21.90;73.00;;;;;;6307064;27;82654;-72
2021/12/30 03:56:23;;;;;;;6.53;5.93;;;21.90;72.20;;;;;;6313218;27;82637;-71
2021/12/30 03:59:25;;;;;;;6.47;5.85;;;21.90;72.20;;;;;;6298676;27;81265;-72
2021/12/30 04:02:27;;;;;;;6.60;5.95;;;21.90;72.30;;;;;;6295737;27;82399;-71
2021/12/30 04:05:30;;;;;;;6.25;5.65;;;21.90;72.30;;;;;;6292269;27;82391;-72
2021/12/30 04:08:34;;;;;;;6.15;5.53;;;21.90;72.30;;;;;;6312472;27;82350;-71
2021/12/30 04:11:37;;;;;;;6.15;5.55;;;21.90;72.40;;;;;;6293063;27;82775;-71
2021/12/30 04:14:39;;;;;;;6.65;5.95;;;21.90;72.40;;;;;;6301544;27;82299;-71
2021/12/30 04:17:43;;;;;;;7.45;6.18;;;21.80;72.40;;;;;;6297455;27;82227;-72
2021/12/30 04:20:46;;;;;;;6.25;5.57;;;21.80;72.50;;;;;;6309931;27;81359;-71
2021/12/30 04:23:50;;;;;;;6.45;5.75;;;21.80;72.30;;;;;;6300985;27;81181;-72
2021/12/30 04:26:52;;;;;;;6.00;5.40;;;21.80;72.30;;;;;;6285482;27;82299;-72
2021/12/30 04:29:54;;;;;;;6.32;5.65;;;21.80;72.30;;;;;;6299589;27;82286;-72
2021/12/30 04:32:56;;;;;;;6.40;5.78;;;21.80;72.30;;;;;;6312033;27;82284;-72
2021/12/30 04:35:59;;;;;;;6.70;6.00;;;21.80;72.30;;;;;;6288181;27;82286;-72
2021/12/30 04:39:04;;;;;;;6.30;5.70;;;21.80;72.30;;;;;;6299385;27;82730;-72
2021/12/30 04:42:06;;;;;;;5.82;5.22;;;21.80;72.30;;;;;;6291515;27;81535;-72
2021/12/30 04:45:10;;;;;;;6.18;5.57;;;21.80;72.30;;;;;;6313187;27;81463;-73
2021/12/30 04:48:12;;;;;;;5.93;5.40;;;21.80;72.30;;;;;;6297014;27;82592;-73
2021/12/30 04:51:16;;;;;;;5.50;4.95;;;21.80;72.30;;;;;;6292991;27;82344;-73
2021/12/30 04:54:20;;;;;;;5.40;4.90;;;21.90;72.30;;;;;;6300835;27;82383;-71
2021/12/30 04:57:22;;;;;;;5.72;5.13;;;21.90;72.30;;;;;;6291202;27;82184;-72
2021/12/30 05:00:24;;;;;;;5.18;4.68;;;21.90;72.20;;;;;;6309295;27;82528;-73
2021/12/30 05:03:26;;;;;;;5.53;5.03;;;21.90;72.20;;;;;;6297881;27;82456;-73
2021/12/30 05:06:28;;;;;;;5.30;4.72;;;22.00;72.20;;;;;;6299280;27;81523;-73
2021/12/30 05:09:31;;;;;;;5.43;4.93;;;22.00;72.20;;;;;;6286426;27;82649;-72
2021/12/30 05:12:33;;;;;;;5.00;4.43;;;22.00;72.10;;;;;;6295431;27;82745;-72
2021/12/30 05:15:36;;;;;;;5.10;4.60;;;22.00;72.10;;;;;;6300390;27;82308;-73
2021/12/30 05:18:40;;;;;;;5.10;4.60;;;22.00;72.10;;;;;;6302975;27;82731;-71
2021/12/30 05:21:42;;;;;;;5.00;4.50;;;22.00;72.00;;;;;;6301327;27;82345;-72
2021/12/30 05:24:45;;;;;;;5.18;4.68;;;22.00;72.00;;;;;;6302939;27;82326;-73
2021/12/30 05:27:48;;;;;;;4.60;4.20;;;22.10;72.10;;;;;;6302390;27;82374;-72
2021/12/30 05:30:50;;;;;;;4.38;3.97;;;22.10;72.10;;;;;;6308088;27;82509;-72
2021/12/30 05:33:53;;;;;;;4.35;3.90;;;22.10;72.00;;;;;;6289581;27;82051;-72
2021/12/30 05:36:55;;;;;;;4.85;4.32;;;22.10;72.00;;;;;;6298001;27;82227;-72
2021/12/30 05:39:58;;;;;;;4.40;4.00;;;22.20;72.00;;;;;;6291757;27;82412;-72
2021/12/30 05:43:01;;;;;;;4.18;3.78;;;22.20;72.00;;;;;;6305631;27;81116;-72
2021/12/30 05:46:03;;;;;;;4.60;4.20;;;22.20;72.00;;;;;;6302212;27;81196;-72
2021/12/30 05:49:05;;;;;;;4.22;3.83;;;22.20;71.90;;;;;;6296905;27;82574;-72
2021/12/30 05:52:07;;;;;;;4.40;4.00;;;22.20;71.90;;;;;;6312032;27;82347;-71
2021/12/30 05:55:11;;;;;;;4.20;3.80;;;22.20;71.90;;;;;;6310293;27;81501;-71
2021/12/30 05:58:13;;;;;;;3.85;3.50;;;22.20;72.00;;;;;;6296207;27;82693;-72
2021/12/30 06:01:15;;;;;;;3.63;3.33;;;22.20;72.00;;;;;;6299729;27;81229;-72
2021/12/30 06:04:17;;;;;;;4.00;3.60;;;22.20;72.00;;;;;;6291999;27;82383;-72
2021/12/30 06:07:19;;;;;;;3.50;3.20;;;22.20;72.00;;;;;;6291719;27;82329;-73
2021/12/30 06:10:23;;;;;;;3.45;3.15;;;22.20;72.00;;;;;;6308310;27;82350;-72
2021/12/30 06:13:25;;;;;;;3.90;3.50;;;22.20;72.00;;;;;;6297909;27;82284;-72
2021/12/30 06:16:27;;;;;;;3.58;3.28;;;22.20;72.00;;;;;;6291278;27;82368;-71
2021/12/30 06:22:49;;;;;;;3.78;3.47;;;22.20;72.00;;;;;;6312654;27;80521;-72
2021/12/30 06:25:52;;;;;;;3.60;3.30;;;22.20;72.00;;;;;;6301307;27;82155;-72
2021/12/30 06:28:54;;;;;;;3.47;3.17;;;22.20;72.00;;;;;;6301378;27;83054;-73
2021/12/30 06:31:56;;;;;;;3.45;3.15;;;22.20;72.10;;;;;;6305266;27;83401;-73
2021/12/30 06:34:58;;;;;;;3.22;2.92;;;22.20;72.00;;;;;;6287540;27;84523;-71
2021/12/30 06:38:00;;;;;;;3.28;2.97;;;22.20;72.00;;;;;;6287391;27;84049;-72
2021/12/30 06:41:04;;;;;;;3.20;2.90;;;22.30;72.00;;;;;;6286871;27;83751;-72
2021/12/30 06:44:06;;;;;;;3.25;2.95;;;22.30;72.00;;;;;;6310900;27;83043;-72
2021/12/30 06:47:09;;;;;;;2.92;2.67;;;22.30;72.00;;;;;;6300012;27;84335;-72
2021/12/30 06:50:11;;;;;;;2.97;2.70;;;22.30;72.00;;;;;;6302817;27;84074;-72
2021/12/30 06:53:13;;;;;;;3.15;2.85;;;22.30;72.00;;;;;;6288380;27;84050;-72
2021/12/30 06:56:36;;;;;;;3.10;2.80;;;22.30;72.00;;;;;;6306809;27;83180;-71
2021/12/30 06:59:38;;;;;;;2.80;2.60;;;22.30;72.00;;;;;;6288792;27;84112;-73
2021/12/30 07:02:43;;;;;;;2.67;2.47;;;22.30;72.00;;;;;;6310183;27;83372;-73
2021/12/30 07:05:46;;;;;;;2.90;2.70;;;22.30;72.00;;;;;;6305270;27;84119;-72
2021/12/30 07:08:48;;;;;;;3.10;2.78;;;22.30;72.00;;;;;;6290617;27;84071;-73
2021/12/30 07:11:54;;;;;;;2.97;2.67;;;22.30;72.10;;;;;;6293945;27;83800;-72
2021/12/30 07:14:57;;;;;;;2.80;2.60;;;22.30;72.10;;;;;;6301868;27;84389;-72
2021/12/30 07:17:59;;;;;;;3.10;2.80;;;22.30;72.10;;;;;;6311100;27;84330;-72
2021/12/30 07:21:01;;;;;;;2.70;2.50;;;22.30;72.10;;;;;;6303011;27;82846;-71
2021/12/30 07:24:03;;;;;;;2.92;2.63;;;22.30;72.10;;;;;;6300534;27;83917;-72
2021/12/30 07:27:07;;;;;;;2.80;2.50;;;22.30;72.00;;;;;;6297797;27;84314;-72
2021/12/30 07:30:10;;;;;;;2.88;2.67;;;22.30;72.00;;;;;;6294076;27;84170;-72
2021/12/30 07:33:12;;;;;;;2.60;2.40;;;22.40;72.10;;;;;;6294631;27;83190;-71
2021/12/30 07:36:15;;;;;;;2.83;2.53;;;22.30;72.00;;;;;;6287815;27;84327;-72
2021/12/30 07:39:17;;;;;;;2.35;2.15;;;22.40;72.00;;;;;;6297432;27;84111;-72
2021/12/30 07:42:20;;;;;;;2.70;2.50;;;22.40;72.00;;;;;;6312847;27;84864;-72
2021/12/30 07:45:22;;;;;;;2.80;2.50;;;22.40;72.00;;;;;;6310708;27;83332;-72
2021/12/30 07:48:24;;;;;;;2.60;2.40;;;22.40;72.00;;;;;;6289934;27;82927;-71
2021/12/30 07:51:28;;;;;;;2.50;2.30;;;22.40;72.00;;;;;;6301144;27;82863;-71
2021/12/30 07:54:30;;;;;;;2.60;2.40;;;22.40;72.00;;;;;;6306261;27;83250;-72
2021/12/30 07:57:34;;;;;;;2.47;2.28;;;22.30;72.00;;;;;;6297381;27;83044;-71
2021/12/30 08:00:36;;;;;;;2.40;2.20;;;22.40;72.00;;;;;;6294098;27;84161;-72
2021/12/30 08:03:38;;;;;;;2.60;2.40;;;22.40;72.00;;;;;;6298841;27;84054;-72
2021/12/30 08:06:40;;;;;;;2.42;2.22;;;22.30;72.00;;;;;;6302506;27;83991;-72
2021/12/30 08:09:42;;;;;;;2.20;2.00;;;22.30;72.00;;;;;;6299860;27;84320;-72
2021/12/30 08:12:47;;;;;;;2.20;2.00;;;22.40;72.10;;;;;;6283958;27;84970;-72
2021/12/30 08:15:49;;;;;;;2.50;2.30;;;22.40;72.10;;;;;;6298738;27;84130;-71
2021/12/30 08:18:51;;;;;;;2.28;2.08;;;22.40;72.10;;;;;;6301253;27;82899;-72
2021/12/30 08:21:53;;;;;;;2.30;2.10;;;22.40;72.10;;;;;;6307995;27;84336;-72
2021/12/30 08:24:56;;;;;;;2.30;2.10;;;22.40;72.10;;;;;;6302108;27;84379;-72
2021/12/30 08:27:59;;;;;;;2.20;2.00;;;22.40;72.10;;;;;;6305728;27;82941;-71
2021/12/30 08:31:01;;;;;;;2.20;2.00;;;22.40;72.10;;;;;;6303873;27;84340;-72
2021/12/30 08:34:05;;;;;;;2.42;2.22;;;22.40;72.10;;;;;;6297980;27;83254;-72
2021/12/30 08:37:26;;;;;;;2.38;2.17;;;22.40;72.10;;;;;;6288132;27;84303;-72
2021/12/30 08:40:28;;;;;;;2.20;2.00;;;22.40;72.00;;;;;;6294773;27;84266;-72
2021/12/30 08:43:31;;;;;;;2.25;2.05;;;22.40;72.00;;;;;;6302681;27;83762;-73
2021/12/30 08:46:33;;;;;;;2.30;2.10;;;22.40;72.00;;;;;;6306531;27;83249;-72
2021/12/30 08:49:35;;;;;;;2.33;2.13;;;22.40;72.00;;;;;;6289592;27;84011;-72
2021/12/30 08:52:37;;;;;;;2.10;1.90;;;22.40;72.00;;;;;;6298320;27;84147;-72
2021/12/30 08:55:40;;;;;;;2.30;2.10;;;22.40;72.00;;;;;;6297935;27;82927;-72
2021/12/30 08:58:43;;;;;;;2.15;1.95;;;22.40;72.00;;;;;;6284380;27;83092;-72
2021/12/30 09:01:45;;;;;;;1.98;1.77;;;22.40;72.00;;;;;;6286010;27;84070;-73
2021/12/30 09:04:48;;;;;;;1.80;1.70;;;22.40;72.10;;;;;;6285810;27;83597;-72
2021/12/30 09:07:50;;;;;;;2.40;2.20;;;22.50;72.20;;;;;;6298407;27;84092;-72
2021/12/30 09:10:52;;;;;;;2.03;1.90;;;22.50;72.20;;;;;;6306817;27;84315;-72
2021/12/30 09:13:56;;;;;;;2.17;1.95;;;22.40;72.10;;;;;;6295190;27;84869;-72
2021/12/30 09:16:58;;;;;;;1.90;1.80;;;22.40;72.10;;;;;;6304310;27;84060;-72
2021/12/30 09:20:00;;;;;;;1.70;1.60;;;22.40;72.10;;;;;;6299062;27;84296;-71
2021/12/30 09:23:03;;;;;;;2.30;2.10;;;22.40;72.10;;;;;;6300617;27;84336;-72
2021/12/30 09:26:06;;;;;;;2.10;1.90;;;22.40;72.20;;;;;;6307321;27;84348;-72
2021/12/30 09:29:11;;;;;;;2.10;1.88;;;22.50;72.20;;;;;;6286350;27;84061;-72
2021/12/30 09:32:13;;;;;;;1.90;1.73;;;22.40;72.20;;;;;;6301605;27;84042;-72
2021/12/30 09:35:16;;;;;;;2.20;2.00;;;22.40;72.20;;;;;;6303874;27;83299;-72
2021/12/30 09:38:18;;;;;;;2.25;2.05;;;22.40;72.20;;;;;;6292246;27;83984;-72
2021/12/30 09:41:21;;;;;;;2.22;2.03;;;22.40;72.30;;;;;;6285020;27;84423;-72
2021/12/30 09:44:24;;;;;;;1.77;1.67;;;22.40;72.30;;;;;;6295423;27;84998;-72
2021/12/30 09:47:26;;;;;;;2.20;2.00;;;22.40;72.30;;;;;;6302873;27;82939;-73
2021/12/30 09:50:32;;;;;;;2.00;1.80;;;22.40;72.30;;;;;;6315809;27;84038;-73
2021/12/30 09:53:34;;;;;;;2.00;1.90;;;22.40;72.30;;;;;;6302123;27;82935;-72
2021/12/30 09:56:36;;;;;;;2.10;1.90;;;22.30;72.30;;;;;;6314964;27;82701;-72
2021/12/30 09:59:39;;;;;;;2.30;2.10;;;22.30;72.40;;;;;;6313819;27;84193;-72
2021/12/30 10:02:43;;;;;;;2.40;2.20;;;22.30;72.40;;;;;;6293435;27;84254;-72
2021/12/30 10:05:45;;;;;;;2.60;2.40;;;22.40;72.50;;;;;;6295266;27;83380;-72
2021/12/30 10:08:56;;;;;;;2.15;1.95;;;22.30;72.40;;;;;;6307552;27;84005;-72
2021/12/30 10:12:00;;;;;;;2.30;2.10;;;22.30;72.40;;;;;;6305757;27;83975;-72
2021/12/30 10:15:04;;;;;;;2.55;2.35;;;22.30;72.30;;;;;;6299562;27;85011;-72
2021/12/30 10:18:06;;;;;;;2.35;2.15;;;22.30;72.40;;;;;;6311194;27;84015;-72
2021/12/30 10:21:14;;;;;;;2.42;2.10;;;22.30;72.30;;;;;;6303911;27;84378;-72
2021/12/30 10:24:16;;;;;;;2.50;2.30;;;22.40;72.50;;;;;;6301124;27;84339;-72
2021/12/30 10:27:26;;;;;;;2.35;2.15;;;22.40;72.40;;;;;;6299892;27;82887;-72
2021/12/30 10:30:35;;;;;;;2.53;2.33;;;22.40;72.40;;;;;;6300254;27;82907;-72
2021/12/30 10:33:37;;;;;;;2.50;2.30;;;22.40;72.30;;;;;;6306324;27;82986;-72
2021/12/30 10:36:42;;;;;;;2.40;2.20;;;22.40;72.30;;;;;;6303448;27;82196;-72
2021/12/30 10:39:44;;;;;;;2.53;2.33;;;22.40;72.30;;;;;;6289195;27;82913;-72
2021/12/30 10:42:46;;;;;;;2.70;2.50;;;22.40;72.30;;;;;;6298715;27;84012;-72
2021/12/30 10:46:20;;;;;;;2.60;2.40;;;22.40;72.30;;;;;;6297828;27;85170;-72
2021/12/30 10:49:26;;;;;;;2.45;2.25;;;22.40;72.30;;;;;;6223339;27;83794;-72
2021/12/30 10:52:29;;;;;;;2.70;2.50;;;22.40;72.30;;;;;;6299836;27;83131;-72
2021/12/30 10:55:34;;;;;;;2.50;2.30;;;22.40;72.30;;;;;;6298758;27;83228;-72
2021/12/30 10:58:36;;;;;;;2.72;2.53;;;22.50;72.40;;;;;;6299325;27;84217;-72
2021/12/30 11:01:41;;;;;;;2.60;2.40;;;22.50;72.30;;;;;;6301286;27;83923;-71
2021/12/30 11:04:46;;;;;;;2.22;2.08;;;22.40;72.30;;;;;;6287410;27;84022;-72
2021/12/30 11:07:51;;;;;;;2.50;2.30;;;22.40;72.30;;;;;;6309498;27;83283;-73
2021/12/30 11:10:53;;;;;;;2.67;2.47;;;22.40;72.30;;;;;;6289612;27;84182;-72
2021/12/30 11:14:00;;;;;;;2.35;2.15;;;22.50;72.30;;;;;;6285529;27;83028;-72
2021/12/30 11:17:29;;;;;;;2.83;2.50;;;22.50;72.30;;;;;;6306551;27;85076;-72
2021/12/30 11:20:31;;;;;;;2.45;2.25;;;22.50;72.30;;;;;;6310763;27;84066;-72
2021/12/30 11:23:33;;;;;;;2.50;2.30;;;22.50;72.30;;;;;;6289369;27;82989;-73
2021/12/30 11:26:36;;;;;;;2.30;2.10;;;22.50;72.30;;;;;;6295005;27;84106;-72
2021/12/30 11:29:40;;;;;;;2.50;2.30;;;22.50;72.30;;;;;;6293992;27;84057;-73
2021/12/30 11:32:48;;;;;;;2.47;2.28;;;22.50;72.30;;;;;;6300456;27;84200;-73
2021/12/30 11:35:50;;;;;;;2.45;2.25;;;22.50;72.30;;;;;;6288191;27;85006;-70
2021/12/30 11:38:52;;;;;;;2.35;2.15;;;22.50;72.30;;;;;;6297879;27;83404;-72
2021/12/30 11:41:58;;;;;;;2.17;1.98;;;22.50;72.30;;;;;;6293828;27;84335;-72
2021/12/30 11:45:02;;;;;;;2.50;2.30;;;22.50;72.30;;;;;;6290845;27;84299;-72
2021/12/30 11:48:07;;;;;;;2.38;2.17;;;22.50;72.30;;;;;;6299172;27;85159;-72
2021/12/30 11:51:12;;;;;;;2.20;2.00;;;22.50;72.30;;;;;;6300300;27;84058;-72
2021/12/30 11:54:35;;;;;;;2.20;2.00;;;22.50;72.30;;;;;;6299687;27;84068;-73
2021/12/30 11:57:39;;;;;;;2.20;2.00;;;22.50;72.30;;;;;;6286746;27;84280;-72
2021/12/30 12:00:41;;;;;;;2.33;2.13;;;22.50;72.30;;;;;;6299748;27;82945;-72
2021/12/30 12:03:47;;;;;;;2.40;2.20;;;22.50;72.30;;;;;;6284911;27;84418;-72
2021/12/30 12:06:59;;;;;;;2.60;2.40;;;22.50;72.40;;;;;;6298371;27;84054;-73
2021/12/30 12:10:16;;;;;;;2.30;2.10;;;22.50;72.30;;;;;;6285596;27;83341;-72
2021/12/30 12:13:34;;;;;;;2.67;2.05;;;22.50;72.30;;;;;;6297206;27;84158;-72
2021/12/30 12:16:48;;;;;;;2.30;2.10;;;22.50;72.40;;;;;;6300885;27;83684;-72
2021/12/30 12:19:53;;;;;;;1.95;1.85;;;22.50;72.40;;;;;;6298843;27;84991;-72
2021/12/30 12:22:56;;;;;;;2.10;1.92;;;22.50;72.40;;;;;;6287205;27;84234;-71
2021/12/30 12:26:07;;;;;;;2.20;2.00;;;22.50;72.30;;;;;;6309515;27;82979;-72
2021/12/30 12:29:24;;;;;;;2.30;2.10;;;22.50;72.30;;;;;;6296330;27;84046;-72
2021/12/30 12:32:37;;;;;;;2.40;2.20;;;22.50;72.30;;;;;;6304217;27;84292;-72
2021/12/30 12:39:01;;;;;;;2.03;1.92;;;22.60;72.40;;;;;;6297831;27;82138;-72
2021/12/30 12:42:04;;;;;;;2.08;1.88;;;22.60;72.40;;;;;;6294565;27;82123;-72
2021/12/30 12:45:16;;;;;;;2.10;1.90;;;22.60;72.40;;;;;;6302930;27;83126;-72
2021/12/30 12:48:43;;;;;;;1.98;1.88;;;22.50;72.30;;;;;;6285278;27;84053;-71
2021/12/30 12:51:55;;;;;;;2.13;1.95;;;22.60;72.40;;;;;;6309725;27;85061;-72
2021/12/30 12:54:57;;;;;;;2.08;1.90;;;22.50;72.30;;;;;;6299342;27;84049;-72
2021/12/30 12:58:07;;;;;;;1.92;1.83;;;22.50;72.30;;;;;;6293998;27;83987;-71
2021/12/30 13:01:12;;;;;;;1.75;1.65;;;22.60;72.50;;;;;;6311082;27;83958;-72
2021/12/30 13:04:15;;;;;;;2.58;2.10;;;22.60;72.50;;;;;;6288351;27;82904;-72
2021/12/30 13:07:21;;;;;;;2.20;2.00;;;22.50;72.40;;;;;;6285576;27;83976;-72
2021/12/30 13:10:23;;;;;;;2.00;1.80;;;22.50;72.50;;;;;;6284253;27;84843;-73
2021/12/30 13:13:30;;;;;;;1.80;1.70;;;22.50;72.40;;;;;;6301628;27;83249;-72
2021/12/30 13:16:35;;;;;;;2.00;1.90;;;22.50;72.40;;;;;;6306312;27;84057;-71
2021/12/30 13:19:40;;;;;;;1.90;1.70;;;22.60;72.50;;;;;;6289175;27;84145;-71
2021/12/30 13:26:07;;;;;;;2.03;1.83;;;22.60;72.50;;;;;;6307735;27;82614;-71
2021/12/30 13:29:09;;;;;;;1.92;1.73;;;22.60;72.40;;;;;;6296840;27;82764;-72
2021/12/30 13:32:13;;;;;;;2.20;2.00;;;22.60;72.40;;;;;;6296377;27;84118;-72
2021/12/30 13:35:18;;;;;;;1.92;1.80;;;22.60;72.50;;;;;;6290148;27;84012;-72
2021/12/30 13:38:25;;;;;;;1.80;1.70;;;22.60;72.50;;;;;;6285068;27;84446;-72
2021/12/30 13:41:27;;;;;;;1.70;1.60;;;22.60;72.50;;;;;;6298529;27;82876;-72
2021/12/30 13:44:38;;;;;;;1.90;1.80;;;22.60;72.50;;;;;;6304932;27;82249;-72
2021/12/30 13:47:42;;;;;;;1.92;1.75;;;22.60;72.50;;;;;;6285352;27;84066;-72
2021/12/30 13:50:47;;;;;;;2.00;1.80;;;22.60;72.50;;;;;;6283700;27;84029;-72
2021/12/30 13:53:50;;;;;;;1.98;1.80;;;22.50;72.40;;;;;;6297657;27;84966;-73
2021/12/30 13:56:53;;;;;;;1.70;1.60;;;22.60;72.50;;;;;;6285495;27;84041;-72
2021/12/30 13:59:55;;;;;;;1.80;1.70;;;22.60;72.50;;;;;;6283358;27;82991;-72
2021/12/30 14:03:04;;;;;;;1.80;1.70;;;22.60;72.50;;;;;;6307787;27;82935;-72
2021/12/30 14:06:08;;;;;;;2.00;1.80;;;22.60;72.50;;;;;;6302695;27;84055;-72
2021/12/30 14:09:13;;;;;;;2.53;1.77;;;22.60;72.50;;;;;;6287358;27;84093;-71
2021/12/30 14:12:16;;;;;;;3.80;1.73;;;22.60;72.50;;;;;;6299348;27;84344;-70
2021/12/30 14:15:19;;;;;;;3.67;1.70;;;22.60;72.80;;;;;;6284513;27;83636;-71
2021/12/30 14:18:21;;;;;;;1.77;1.60;;;22.60;72.80;;;;;;6295964;27;82932;-71
2021/12/30 14:21:24;;;;;;;3.03;1.52;;;22.60;73.00;;;;;;6298886;27;83946;-71
2021/12/30 14:24:29;;;;;;;2.83;1.67;;;22.60;73.00;;;;;;6298511;27;84944;-70
2021/12/30 14:27:33;;;;;;;3.60;1.50;;;22.60;73.10;;;;;;6309058;27;84058;-70
2021/12/30 14:30:36;;;;;;;2.40;1.80;;;22.60;73.20;;;;;;6303523;27;83296;-71
2021/12/30 14:33:40;;;;;;;3.05;1.50;;;22.60;73.30;;;;;;6301196;27;83934;-72
2021/12/30 14:36:51;;;;;;;3.25;1.80;;;22.60;73.40;;;;;;6304758;27;85586;-72
2021/12/30 14:39:56;;;;;;;2.38;1.50;;;22.60;73.50;;;;;;6290733;27;83957;-72
2021/12/30 14:43:01;;;;;;;1.90;1.42;;;22.60;73.50;;;;;;6303974;27;84083;-72
2021/12/30 14:46:13;;;;;;;2.35;1.88;;;22.70;73.60;;;;;;6302320;27;82179;-70
2021/12/30 14:49:18;;;;;;;1.70;1.50;;;22.60;73.70;;;;;;6290184;27;83942;-73
2021/12/30 14:52:25;;;;;;;2.55;1.75;;;22.60;73.70;;;;;;6298264;27;84048;-72
2021/12/30 14:55:33;;;;;;;3.55;1.65;;;22.70;73.80;;;;;;6295765;27;84705;-71
2021/12/30 14:58:35;;;;;;;2.72;1.55;;;22.60;73.80;;;;;;6299980;27;84016;-71
2021/12/30 15:01:39;;;;;;;1.92;1.65;;;22.70;74.00;;;;;;6300659;27;84093;-70
2021/12/30 15:04:41;;;;;;;3.28;1.35;;;22.60;73.90;;;;;;6300785;27;84047;-70
2021/12/30 15:07:44;;;;;;;2.47;1.58;;;22.60;74.00;;;;;;6295837;27;84077;-70
2021/12/30 15:10:47;;;;;;;2.88;1.65;;;22.60;74.00;;;;;;6306450;27;84053;-71
2021/12/30 15:13:50;;;;;;;1.77;1.52;;;22.70;74.00;;;;;;6298814;27;84092;-71
2021/12/30 15:16:52;;;;;;;1.60;1.50;;;22.70;74.10;;;;;;6305268;27;83630;-71
2021/12/30 15:19:54;;;;;;;2.65;1.60;;;22.70;74.10;;;;;;6312215;27;84210;-72
2021/12/30 15:22:57;;;;;;;2.42;1.67;;;22.70;74.20;;;;;;6294584;27;83903;-71
2021/12/30 15:26:01;;;;;;;2.30;1.60;;;22.70;74.50;;;;;;6300438;27;83880;-70
2021/12/30 15:29:03;;;;;;;2.78;1.58;;;22.70;74.50;;;;;;6301366;27;83236;-70
2021/12/30 15:32:06;;;;;;;1.92;1.45;;;22.70;74.50;;;;;;6311344;27;84033;-70
2021/12/30 15:35:09;;;;;;;2.20;1.63;;;22.70;74.70;;;;;;6296879;27;83963;-72
2021/12/30 15:38:12;;;;;;;3.13;1.83;;;22.70;74.70;;;;;;6307293;27;84079;-70
2021/12/30 15:41:16;;;;;;;3.45;1.60;;;22.70;74.70;;;;;;6303303;27;83992;-70
2021/12/30 15:44:18;;;;;;;3.25;1.70;;;22.70;74.70;;;;;;6310062;27;84015;-70
2021/12/30 15:47:20;;;;;;;2.70;1.60;;;22.80;74.80;;;;;;6294168;27;83338;-71
2021/12/30 15:50:22;;;;;;;3.50;1.50;;;22.70;74.90;;;;;;6288659;27;84009;-72
2021/12/30 15:53:25;;;;;;;4.88;1.80;;;22.80;75.00;;;;;;6310208;27;84022;-72
2021/12/30 15:56:29;;;;;;;4.25;1.70;;;22.80;74.90;;;;;;6309235;27;85017;-73
2021/12/30 15:59:31;;;;;;;3.53;1.65;;;22.70;75.00;;;;;;6287508;27;84386;-72
2021/12/30 16:02:33;;;;;;;2.72;1.70;;;22.70;74.90;;;;;;6299569;27;84035;-73
2021/12/30 16:05:35;;;;;;;2.42;1.50;;;22.70;74.90;;;;;;6298468;27;84041;-72
2021/12/30 16:08:39;;;;;;;2.63;1.67;;;22.70;74.90;;;;;;6287248;27;84020;-71
2021/12/30 16:12:01;;;;;;;2.88;1.80;;;22.80;75.00;;;;;;6292350;27;84079;-73